createdAt,value
2018-02-02T00:00:13.553Z,6.50
2018-02-02T00:02:40.749Z,3.70
2018-02-02T00:05:07.173Z,9.67
2018-02-02T00:07:34.356Z,6.20
2018-02-02T00:10:00.741Z,7.13
2018-02-02T00:12:27.161Z,10.20
2018-02-02T00:14:53.638Z,6.10
2018-02-02T00:17:20.071Z,7.03
2018-02-02T00:19:46.471Z,7.60
2018-02-02T00:22:12.916Z,8.87
2018-02-02T00:24:39.331Z,12.33
2018-02-02T00:27:06.935Z,10.70
2018-02-02T00:29:33.345Z,10.20
2018-02-02T00:32:00.536Z,11.93
2018-02-02T00:34:26.943Z,9.97
2018-02-02T00:36:53.341Z,11.67
2018-02-02T00:39:19.810Z,9.73
2018-02-02T00:41:46.205Z,10.43
2018-02-02T00:44:12.681Z,13.27
2018-02-02T00:46:39.131Z,14.03
2018-02-02T00:49:07.441Z,16.37
2018-02-02T00:51:40.097Z,7.93
2018-02-02T00:54:07.599Z,9.60
2018-02-02T00:56:33.993Z,8.03
2018-02-02T00:59:00.495Z,8.37
2018-02-02T01:01:27.917Z,13.00
2018-02-02T01:03:54.321Z,10.90
2018-02-02T01:06:20.838Z,18.00
2018-02-02T01:08:47.290Z,8.10
2018-02-02T01:11:13.690Z,16.63
2018-02-02T01:13:40.133Z,12.73
2018-02-02T01:16:07.542Z,15.13
2018-02-02T01:18:33.926Z,9.83
2018-02-02T01:21:01.873Z,15.90
2018-02-02T01:23:28.301Z,11.80
2018-02-02T01:25:54.925Z,15.30
2018-02-02T01:28:21.346Z,17.70
2018-02-02T01:30:48.530Z,14.20
2018-02-02T01:33:15.021Z,13.90
2018-02-02T01:35:42.217Z,15.20
2018-02-02T01:38:09.375Z,19.23
2018-02-02T01:40:35.830Z,12.27
2018-02-02T01:43:02.278Z,10.73
2018-02-02T01:45:28.797Z,15.27
2018-02-02T01:48:08.339Z,10.97
2018-02-02T01:50:34.823Z,16.63
2018-02-02T01:53:01.205Z,8.93
2018-02-02T01:55:27.638Z,9.73
2018-02-02T01:57:54.075Z,12.57
2018-02-02T02:00:21.194Z,12.90
2018-02-02T02:02:47.614Z,5.10
2018-02-02T02:05:14.042Z,13.90
2018-02-02T02:07:40.462Z,12.33
2018-02-02T02:10:06.932Z,9.30
2018-02-02T02:12:33.341Z,12.90
2018-02-02T02:15:00.503Z,12.47
2018-02-02T02:17:27.690Z,10.20
2018-02-02T02:19:54.120Z,13.80
2018-02-02T02:22:21.273Z,14.80
2018-02-02T02:24:47.726Z,10.50
2018-02-02T02:27:14.245Z,16.80
2018-02-02T02:29:40.646Z,11.70
2018-02-02T02:32:07.529Z,11.40
2018-02-02T02:34:33.947Z,19.50
2018-02-02T02:37:00.352Z,11.40
2018-02-02T02:39:26.858Z,11.40
2018-02-02T02:41:53.253Z,18.10
2018-02-02T02:44:20.417Z,16.87
2018-02-02T02:46:48.087Z,20.30
2018-02-02T02:49:14.550Z,14.60
2018-02-02T02:51:40.962Z,17.67
2018-02-02T02:54:08.451Z,14.30
2018-02-02T02:56:34.894Z,19.10
2018-02-02T02:59:01.321Z,16.27
2018-02-02T03:01:27.757Z,13.17
2018-02-02T03:03:54.926Z,19.60
2018-02-02T03:06:22.160Z,14.13
2018-02-02T03:08:49.373Z,18.00
2018-02-02T03:11:15.783Z,18.20
2018-02-02T03:13:42.193Z,13.30
2018-02-02T03:16:09.015Z,18.50
2018-02-02T03:18:35.443Z,14.70
2018-02-02T03:21:02.977Z,20.97
2018-02-02T03:23:29.418Z,13.63
2018-02-02T03:25:55.855Z,18.90
2018-02-02T03:28:22.261Z,21.93
2018-02-02T03:30:48.755Z,18.70
2018-02-02T03:33:15.709Z,18.80
2018-02-02T03:35:42.146Z,18.53
2018-02-02T03:38:08.857Z,21.10
2018-02-02T03:40:35.289Z,21.50
2018-02-02T03:43:01.824Z,24.27
2018-02-02T03:45:28.265Z,17.83
2018-02-02T03:47:54.697Z,20.97
2018-02-02T03:50:21.145Z,19.33
2018-02-02T03:52:47.674Z,19.10
2018-02-02T03:55:14.112Z,18.50
2018-02-02T03:57:40.534Z,14.60
2018-02-02T04:00:07.636Z,24.60
2018-02-02T04:02:34.938Z,14.27
2018-02-02T04:05:02.168Z,21.63
2018-02-02T04:07:28.607Z,14.00
2018-02-02T04:09:55.002Z,17.87
2018-02-02T04:12:21.494Z,17.90
2018-02-02T04:14:47.910Z,17.93
2018-02-02T04:17:14.378Z,20.70
2018-02-02T04:19:40.810Z,17.10
2018-02-02T04:22:07.794Z,17.70
2018-02-02T04:24:34.274Z,15.17
2018-02-02T04:27:01.413Z,15.47
2018-02-02T04:29:28.635Z,21.57
2018-02-02T04:31:55.100Z,15.37
2018-02-02T04:34:21.599Z,15.30
2018-02-02T04:36:48.831Z,11.93
2018-02-02T04:39:15.265Z,12.77
2018-02-02T04:41:41.681Z,14.30
2018-02-02T04:44:08.668Z,13.77
2018-02-02T04:46:35.196Z,20.60
2018-02-02T04:49:02.785Z,24.20
2018-02-02T04:51:30.027Z,14.10
2018-02-02T04:53:56.444Z,18.53
2018-02-02T04:56:23.575Z,14.70
2018-02-02T04:58:50.057Z,14.80
2018-02-02T05:01:16.491Z,16.37
2018-02-02T05:03:42.998Z,16.87
2018-02-02T05:06:09.498Z,13.63
2018-02-02T05:08:35.962Z,14.33
2018-02-02T05:11:02.433Z,12.77
2018-02-02T05:13:29.616Z,9.60
2018-02-02T05:15:56.660Z,15.20
2018-02-02T05:18:23.222Z,20.90
2018-02-02T05:20:50.459Z,16.83
2018-02-02T05:23:16.932Z,21.53
2018-02-02T05:25:44.391Z,13.53
2018-02-02T05:28:10.904Z,11.67
2018-02-02T05:30:37.360Z,27.23
2018-02-02T05:33:04.635Z,17.40
2018-02-02T05:35:31.841Z,10.30
2018-02-02T05:37:58.986Z,13.73
2018-02-02T05:40:25.515Z,13.83
2018-02-02T05:42:52.784Z,18.00
2018-02-02T05:45:19.319Z,18.27
2018-02-02T05:47:45.883Z,12.83
2018-02-02T05:50:12.426Z,31.97
2018-02-02T05:52:38.899Z,22.37
2018-02-02T05:55:06.015Z,17.50
2018-02-02T05:57:32.453Z,14.43
2018-02-02T05:59:59.685Z,17.10
2018-02-02T06:02:26.126Z,18.73
2018-02-02T06:04:52.591Z,7.73
2018-02-02T06:07:19.111Z,13.17
2018-02-02T06:09:45.590Z,11.70
2018-02-02T06:12:12.877Z,15.57
2018-02-02T06:14:39.287Z,14.90
2018-02-02T06:17:07.094Z,19.13
2018-02-02T06:19:36.962Z,16.17
2018-02-02T06:22:03.958Z,20.23
2018-02-02T06:24:30.443Z,23.30
2018-02-02T06:26:57.673Z,13.23
2018-02-02T06:29:24.234Z,18.10
2018-02-02T06:31:51.518Z,7.67
2018-02-02T06:34:18.904Z,23.10
2018-02-02T06:36:45.836Z,22.10
2018-02-02T06:39:12.431Z,16.87
2018-02-02T06:41:38.999Z,15.80
2018-02-02T06:44:06.222Z,18.37
2018-02-02T06:46:33.041Z,19.13
2018-02-02T06:49:00.474Z,11.10
2018-02-02T06:51:27.112Z,15.20
2018-02-02T06:53:54.197Z,10.83
2018-02-02T06:56:21.766Z,10.73
2018-02-02T06:58:48.554Z,12.27
2018-02-02T07:01:16.295Z,13.53
2018-02-02T07:03:43.123Z,20.63
2018-02-02T07:06:10.674Z,21.67
2018-02-02T07:08:37.749Z,7.87
2018-02-02T07:11:05.012Z,7.67
2018-02-02T07:13:32.029Z,12.70
2018-02-02T07:15:59.014Z,7.90
2018-02-02T07:18:27.022Z,12.03
2018-02-02T07:20:53.689Z,10.57
2018-02-02T07:23:20.315Z,9.07
2018-02-02T07:25:46.922Z,11.67
2018-02-02T07:28:13.539Z,15.13
2018-02-02T07:30:40.296Z,11.63
2018-02-02T07:33:07.142Z,16.47
2018-02-02T07:35:33.746Z,20.97
2018-02-02T07:38:00.414Z,9.17
2018-02-02T07:40:27.022Z,10.23
2018-02-02T07:42:54.406Z,31.67
2018-02-02T07:45:21.683Z,14.77
2018-02-02T07:47:48.982Z,20.40
2018-02-02T07:50:15.850Z,11.17
2018-02-02T07:52:42.807Z,15.40
2018-02-02T07:55:09.507Z,19.23
2018-02-02T07:57:36.222Z,6.90
2018-02-02T08:00:03.625Z,11.33
2018-02-02T08:02:30.557Z,6.13
2018-02-02T08:04:57.707Z,11.80
2018-02-02T08:07:24.275Z,8.93
2018-02-02T08:09:51.321Z,6.73
2018-02-02T08:12:18.975Z,7.77
2018-02-02T08:14:45.579Z,7.00
2018-02-02T08:17:12.244Z,7.77
2018-02-02T08:19:39.541Z,5.67
2018-02-02T08:22:06.669Z,8.13
2018-02-02T08:24:33.273Z,9.43
2018-02-02T08:27:00.655Z,9.70
2018-02-02T08:29:27.457Z,9.30
2018-02-02T08:31:53.994Z,9.03
2018-02-02T08:34:20.714Z,9.33
2018-02-02T08:36:47.942Z,7.17
2018-02-02T08:39:14.559Z,6.70
2018-02-02T08:41:41.133Z,7.47
2018-02-02T08:44:08.538Z,6.10
2018-02-02T08:46:35.202Z,5.30
2018-02-02T08:49:01.882Z,5.47
2018-02-02T08:51:29.324Z,5.20
2018-02-02T08:53:56.039Z,4.63
2018-02-02T08:56:22.620Z,5.10
2018-02-02T08:58:49.927Z,8.40
2018-02-02T09:01:22.599Z,6.23
2018-02-02T09:03:49.895Z,8.30
2018-02-02T09:06:16.714Z,8.83
2018-02-02T09:08:43.240Z,10.40
2018-02-02T09:11:09.754Z,9.23
2018-02-02T09:13:36.442Z,10.67
2018-02-02T09:16:03.423Z,6.80
2018-02-02T09:18:30.031Z,7.33
2018-02-02T09:20:56.511Z,10.40
2018-02-02T09:23:23.182Z,8.17
2018-02-02T09:25:50.474Z,8.20
2018-02-02T09:28:17.722Z,8.03
2018-02-02T09:30:44.340Z,9.57
2018-02-02T09:33:11.224Z,9.70
2018-02-02T09:35:38.060Z,9.27
2018-02-02T09:38:04.799Z,8.80
2018-02-02T09:40:31.392Z,11.40
2018-02-02T09:42:58.758Z,10.97
2018-02-02T09:45:26.086Z,9.37
2018-02-02T09:47:52.554Z,9.37
2018-02-02T09:50:19.131Z,11.90
2018-02-02T09:52:45.762Z,7.53
2018-02-02T09:55:12.746Z,7.67
2018-02-02T09:57:39.303Z,8.17
2018-02-02T10:00:06.694Z,8.77
2018-02-02T10:02:34.739Z,6.53
2018-02-02T10:05:01.266Z,10.63
2018-02-02T10:07:27.914Z,12.03
2018-02-02T10:09:55.137Z,8.07
2018-02-02T10:12:23.516Z,10.40
2018-02-02T10:14:50.613Z,9.10
2018-02-02T10:17:18.032Z,9.57
2018-02-02T10:19:44.634Z,10.00
2018-02-02T10:22:11.981Z,11.00
2018-02-02T10:24:38.537Z,12.60
2018-02-02T10:27:05.354Z,10.40
2018-02-02T10:29:31.877Z,9.63
2018-02-02T10:31:58.506Z,8.70
2018-02-02T10:34:25.794Z,13.10
2018-02-02T10:36:53.094Z,11.47
2018-02-02T10:39:20.107Z,12.80
2018-02-02T10:41:47.397Z,7.57
2018-02-02T10:44:14.766Z,11.27
2018-02-02T10:46:41.349Z,11.83
2018-02-02T10:49:07.970Z,9.13
2018-02-02T10:51:34.705Z,12.00
2018-02-02T10:54:02.152Z,15.53
2018-02-02T10:56:29.486Z,9.83
2018-02-02T10:58:56.028Z,10.53
2018-02-02T11:01:29.218Z,9.03
2018-02-02T11:03:56.565Z,10.23
2018-02-02T11:06:23.064Z,15.10
2018-02-02T11:08:49.681Z,6.33
2018-02-02T11:11:16.941Z,15.90
2018-02-02T11:13:43.570Z,9.53
2018-02-02T11:16:11.051Z,7.50
2018-02-02T11:18:37.667Z,10.67
2018-02-02T11:21:05.784Z,15.03
2018-02-02T11:23:32.306Z,18.63
2018-02-02T11:25:58.923Z,21.00
2018-02-02T11:28:25.465Z,15.10
2018-02-02T11:30:52.545Z,9.57
2018-02-02T11:33:19.207Z,9.83
2018-02-02T11:35:45.735Z,16.93
2018-02-02T11:38:12.309Z,9.17
2018-02-02T11:40:39.228Z,8.47
2018-02-02T11:43:05.889Z,20.33
2018-02-02T11:45:34.324Z,14.00
2018-02-02T11:48:00.864Z,10.63
2018-02-02T11:50:27.393Z,15.37
2018-02-02T11:52:54.860Z,10.23
2018-02-02T11:55:22.183Z,18.37
2018-02-02T11:57:48.649Z,23.67
2018-02-02T12:00:15.154Z,9.83
2018-02-02T12:02:41.880Z,10.30
2018-02-02T12:05:08.637Z,20.67
2018-02-02T12:07:35.269Z,15.47
2018-02-02T12:10:02.013Z,6.67
2018-02-02T12:12:28.960Z,15.77
2018-02-02T12:14:55.613Z,18.03
2018-02-02T12:17:23.571Z,9.43
2018-02-02T12:19:51.126Z,15.27
2018-02-02T12:22:23.969Z,9.93
2018-02-02T12:27:59.246Z,11.70
2018-02-02T12:33:39.570Z,8.60
2018-02-02T12:36:06.908Z,12.60
2018-02-02T12:38:33.482Z,7.93
2018-02-02T12:41:00.480Z,12.60
2018-02-02T12:43:27.078Z,16.00
2018-02-02T12:45:53.666Z,8.00
2018-02-02T12:48:32.493Z,15.97
2018-02-02T12:51:02.236Z,13.63
2018-02-02T12:53:29.070Z,10.47
2018-02-02T12:55:56.769Z,11.40
2018-02-02T12:58:24.178Z,17.13
2018-02-02T13:00:51.558Z,13.40
2018-02-02T13:03:18.047Z,7.87
2018-02-02T13:05:44.739Z,6.23
2018-02-02T13:08:11.614Z,12.73
2018-02-02T13:10:38.264Z,15.03
2018-02-02T13:13:05.022Z,7.03
2018-02-02T13:15:31.666Z,6.00
2018-02-02T13:17:58.913Z,11.27
2018-02-02T13:20:25.640Z,12.70
2018-02-02T13:22:52.215Z,7.90
2018-02-02T13:25:18.966Z,12.37
2018-02-02T13:27:45.540Z,6.90
2018-02-02T13:30:13.527Z,4.67
2018-02-02T13:32:40.980Z,4.37
2018-02-02T13:35:08.274Z,2.10
2018-02-02T13:37:34.977Z,2.63
2018-02-02T13:40:01.661Z,2.50
2018-02-02T13:42:28.932Z,2.90
2018-02-02T13:44:55.503Z,3.37
2018-02-02T13:47:22.072Z,2.70
2018-02-02T13:49:48.627Z,2.60
2018-02-02T13:52:16.325Z,1.93
2018-02-02T13:54:43.167Z,4.17
2018-02-02T13:57:09.713Z,2.27
2018-02-02T13:59:36.272Z,6.00
2018-02-02T14:02:03.386Z,5.23
2018-02-02T14:04:30.230Z,6.27
2018-02-02T14:06:57.601Z,4.60
2018-02-02T14:09:24.448Z,3.13
2018-02-02T14:11:52.914Z,6.00
2018-02-02T14:14:19.592Z,7.10
2018-02-02T14:16:46.170Z,3.77
2018-02-02T14:19:13.505Z,8.23
2018-02-02T14:21:40.778Z,7.43
2018-02-02T14:24:08.048Z,6.60
2018-02-02T14:26:34.687Z,3.43
2018-02-02T14:29:04.115Z,2.60
2018-02-02T14:31:33.881Z,3.37
2018-02-02T14:34:00.898Z,5.60
2018-02-02T14:36:28.305Z,8.33
2018-02-02T14:38:54.870Z,7.40
2018-02-02T14:41:22.221Z,6.03
2018-02-02T14:43:48.742Z,6.30
2018-02-02T14:46:16.378Z,5.17
2018-02-02T14:48:43.099Z,3.10
2018-02-02T14:51:09.766Z,5.30
2018-02-02T14:53:36.429Z,6.80
2018-02-02T14:56:03.516Z,5.60
2018-02-02T14:58:30.083Z,5.93
2018-02-02T15:00:56.682Z,8.07
2018-02-02T15:03:24.713Z,12.43
2018-02-02T15:05:51.267Z,4.77
2018-02-02T15:08:18.446Z,4.23
2018-02-02T15:10:45.349Z,7.43
2018-02-02T15:13:11.880Z,5.20
2018-02-02T15:15:38.351Z,14.70
2018-02-02T15:18:07.255Z,7.10
2018-02-02T15:20:33.826Z,9.00
2018-02-02T15:25:59.065Z,7.50
2018-02-02T15:28:25.572Z,13.07
2018-02-02T15:30:52.764Z,10.90
2018-02-02T15:33:19.255Z,7.60
2018-02-02T15:35:45.713Z,8.53
2018-02-02T15:38:12.179Z,12.27
2018-02-02T15:40:38.663Z,7.87
2018-02-02T15:43:06.024Z,10.43
2018-02-02T15:45:33.287Z,9.20
2018-02-02T15:48:00.607Z,8.83
2018-02-02T15:50:27.040Z,10.83
2018-02-02T15:52:54.239Z,10.87
2018-02-02T15:55:20.754Z,10.30
2018-02-02T15:57:47.583Z,12.83
2018-02-02T16:00:15.534Z,11.33
2018-02-02T16:02:42.048Z,14.00
2018-02-02T16:05:08.459Z,12.00
2018-02-02T16:07:35.628Z,7.23
2018-02-02T16:10:02.190Z,7.40
2018-02-02T16:12:28.682Z,11.60
2018-02-02T16:14:55.072Z,8.70
2018-02-02T16:17:21.507Z,9.43
2018-02-02T16:19:47.871Z,30.47
2018-02-02T16:22:14.970Z,7.73
2018-02-02T16:24:41.476Z,12.87
2018-02-02T16:27:07.947Z,12.43
2018-02-02T16:29:34.469Z,18.67
2018-02-02T16:32:01.868Z,10.50
2018-02-02T16:34:29.028Z,19.13
2018-02-02T16:36:55.911Z,5.90
2018-02-02T16:39:22.676Z,7.83
2018-02-02T16:41:49.166Z,11.80
2018-02-02T16:44:15.604Z,13.27
2018-02-02T16:46:43.013Z,7.53
2018-02-02T16:49:10.231Z,12.50
2018-02-02T16:51:36.771Z,11.07
2018-02-02T16:54:03.660Z,9.87
2018-02-02T16:56:30.213Z,13.97
2018-02-02T16:58:56.839Z,14.70
2018-02-02T17:01:24.751Z,12.00
2018-02-02T17:06:12.128Z,13.00
2018-02-02T17:08:38.601Z,13.43
2018-02-02T17:11:05.805Z,14.00
2018-02-02T17:13:33.042Z,11.90
2018-02-02T17:15:59.491Z,20.17
2018-02-02T17:18:25.947Z,11.93
2018-02-02T17:20:52.406Z,29.43
2018-02-02T17:23:18.947Z,11.90
2018-02-02T17:25:45.432Z,16.40
2018-02-02T17:28:12.604Z,13.20
2018-02-02T17:30:39.182Z,18.53
2018-02-02T17:33:05.878Z,15.83
2018-02-02T17:35:32.502Z,14.50
2018-02-02T17:37:59.855Z,9.93
2018-02-02T17:40:26.258Z,12.23
2018-02-02T17:42:53.198Z,11.87
2018-02-02T17:45:19.575Z,11.70
2018-02-02T17:47:46.054Z,13.20
2018-02-02T17:50:13.245Z,14.13
2018-02-02T17:52:39.734Z,14.67
2018-02-02T17:55:06.529Z,13.77
2018-02-02T17:57:32.929Z,24.40
2018-02-02T17:59:59.426Z,21.27
2018-02-02T18:05:26.188Z,11.37
2018-02-02T18:07:53.448Z,15.37
2018-02-02T18:10:20.752Z,9.83
2018-02-02T18:12:47.453Z,9.93
2018-02-02T18:15:13.966Z,14.47
2018-02-02T18:17:40.456Z,15.93
2018-02-02T18:20:08.482Z,11.53
2018-02-02T18:22:34.969Z,13.10
2018-02-02T18:25:01.548Z,16.77
2018-02-02T18:27:27.951Z,17.73
2018-02-02T18:29:54.393Z,15.77
2018-02-02T18:32:20.818Z,15.30
2018-02-02T18:34:47.311Z,16.33
2018-02-02T18:37:13.963Z,20.30
2018-02-02T18:39:40.360Z,19.67
2018-02-02T18:42:06.802Z,21.43
2018-02-02T18:44:33.274Z,15.40
2018-02-02T18:46:59.733Z,23.93
2018-02-02T18:49:26.932Z,17.67
2018-02-02T18:51:53.355Z,23.67
2018-02-02T18:54:19.785Z,23.03
2018-02-02T18:56:46.236Z,26.30
2018-02-02T18:59:12.710Z,22.53
2018-02-02T19:01:39.131Z,26.07
2018-02-02T19:04:06.290Z,24.70
2018-02-02T19:06:32.782Z,27.83
2018-02-02T19:08:59.226Z,40.37
2018-02-02T19:11:25.723Z,28.40
2018-02-02T19:13:52.288Z,23.80
2018-02-02T19:16:18.810Z,26.03
2018-02-02T19:18:45.278Z,29.77
2018-02-02T19:21:11.866Z,18.10
2018-02-02T19:23:38.342Z,11.33
2018-02-02T19:26:05.420Z,18.80
2018-02-02T19:28:31.912Z,17.13
2018-02-02T19:30:58.392Z,14.43
2018-02-02T19:33:24.806Z,23.07
2018-02-02T19:35:52.069Z,9.57
2018-02-02T19:38:19.271Z,16.23
2018-02-02T19:40:45.749Z,18.23
2018-02-02T19:43:12.193Z,24.17
2018-02-02T19:45:38.629Z,10.90
2018-02-02T19:48:07.004Z,15.87
2018-02-02T19:50:33.471Z,15.97
2018-02-02T19:53:00.714Z,12.57
2018-02-02T19:55:27.144Z,11.83
2018-02-02T19:57:53.900Z,16.60
2018-02-02T20:00:20.290Z,17.30
2018-02-02T20:02:47.021Z,10.90
2018-02-02T20:05:13.475Z,12.37
2018-02-02T20:07:40.054Z,8.37
2018-02-02T20:10:07.478Z,17.40
2018-02-02T20:12:33.963Z,12.03
2018-02-02T20:15:00.580Z,9.60
2018-02-02T20:17:27.091Z,8.67
2018-02-02T20:19:53.582Z,10.23
2018-02-02T20:22:20.053Z,15.23
2018-02-02T20:24:46.865Z,13.90
2018-02-02T20:27:14.146Z,6.77
2018-02-02T20:29:40.627Z,8.23
2018-02-02T20:32:07.063Z,11.83
2018-02-02T20:34:33.591Z,11.80
2018-02-02T20:37:00.144Z,13.23
2018-02-02T20:39:26.764Z,13.00
2018-02-02T20:41:54.057Z,10.30
2018-02-02T20:44:20.583Z,8.67
2018-02-02T20:46:47.069Z,9.93
2018-02-02T20:49:13.593Z,18.20
2018-02-02T20:51:40.114Z,9.50
2018-02-02T20:54:07.764Z,9.40
2018-02-02T20:56:34.966Z,9.10
2018-02-02T20:59:01.446Z,22.07
2018-02-02T21:01:28.000Z,7.57
2018-02-02T21:03:54.608Z,9.37
2018-02-02T21:06:21.121Z,12.20
2018-02-02T21:08:47.626Z,8.90
2018-02-02T21:11:14.155Z,12.50
2018-02-02T21:13:40.964Z,16.27
2018-02-02T21:16:07.818Z,25.80
2018-02-02T21:18:34.262Z,43.87
2018-02-02T21:21:00.905Z,21.07
2018-02-02T21:23:27.373Z,15.30
2018-02-02T21:25:54.585Z,34.80
2018-02-02T21:28:21.442Z,69.77
2018-02-02T21:30:47.861Z,30.80
2018-02-02T21:33:14.356Z,43.97
2018-02-02T21:35:40.768Z,13.87
2018-02-02T21:38:08.105Z,48.00
2018-02-02T21:40:34.665Z,86.20
2018-02-02T21:43:01.078Z,90.73
2018-02-02T21:45:27.521Z,34.20
2018-02-02T21:47:54.179Z,47.37
2018-02-02T21:50:20.581Z,26.40
2018-02-02T21:52:47.091Z,30.63
2018-02-02T21:55:13.497Z,35.50
2018-02-02T21:57:40.731Z,45.43
2018-02-02T22:00:07.845Z,58.37
2018-02-02T22:02:35.047Z,48.10
2018-02-02T22:05:02.590Z,26.50
2018-02-02T22:07:29.078Z,36.70
2018-02-02T22:09:55.659Z,37.30
2018-02-02T22:12:22.254Z,40.63
2018-02-02T22:14:49.479Z,32.93
2018-02-02T22:17:16.041Z,35.30
2018-02-02T22:19:42.590Z,45.80
2018-02-02T22:22:09.115Z,26.97
2018-02-02T22:24:36.329Z,25.47
2018-02-02T22:27:03.147Z,20.93
2018-02-02T22:29:30.344Z,32.43
2018-02-02T22:31:57.784Z,21.20
2018-02-02T22:34:24.250Z,20.00
2018-02-02T22:36:54.711Z,12.63
2018-02-02T22:39:21.198Z,12.50
2018-02-02T22:41:47.951Z,21.57
2018-02-02T22:44:14.501Z,19.70
2018-02-02T22:46:41.700Z,17.90
2018-02-02T22:49:08.215Z,12.30
2018-02-02T22:51:34.646Z,16.27
2018-02-02T22:54:01.051Z,16.23
2018-02-02T22:56:27.511Z,11.50
2018-02-02T22:58:53.968Z,11.50
2018-02-02T23:01:20.562Z,16.43
2018-02-02T23:03:47.060Z,26.73
2018-02-02T23:06:13.520Z,5.17
2018-02-02T23:08:39.940Z,8.17
2018-02-02T23:11:06.427Z,10.30
2018-02-02T23:13:32.838Z,8.10
2018-02-02T23:15:59.260Z,7.93
2018-02-02T23:18:25.697Z,12.60
2018-02-02T23:20:52.109Z,9.70
2018-02-02T23:23:18.570Z,16.83
2018-02-02T23:25:44.987Z,11.87
2018-02-02T23:28:11.378Z,12.30
2018-02-02T23:30:37.919Z,11.20
2018-02-02T23:33:05.457Z,9.10
2018-02-02T23:35:31.874Z,7.60
2018-02-02T23:37:58.281Z,12.10
2018-02-02T23:40:25.442Z,9.33
2018-02-02T23:42:52.702Z,7.03
2018-02-02T23:45:19.121Z,11.93
2018-02-02T23:47:45.558Z,11.00
2018-02-02T23:50:11.981Z,7.67
2018-02-02T23:52:38.399Z,10.30
2018-02-02T23:55:05.306Z,6.73
2018-02-02T23:57:31.857Z,9.70
2018-02-02T23:59:58.299Z,8.70
